Salem Township, Maine
Current Conditions -  °F | °C
As of 2:35 AM on Wednesday 22 Oct 2014 (Local Time) from KWVL Reporting Station
Overcast Overcast  
Wind Chill: 38°   Ceiling: 500
Heat Index: 45°   Visibility: 10mi
Dew Point: 37°   Wind: 13mph
Humidity: 76%   Direction: 20°NNE
Pressure: 30.11"   Gusts: 18mph
Location:  44.8564°N, 70.2117°W
Report Text: KWVL 220635Z 02011G16KT 10SM OVC005 07/03 A3011 RMK AO1 P0002
Loading
Personal Weather Stations






























Interactive Weather Map New forecast layout! Learn more

10-Day Weather Forecast

Advertisements
Track Severe Weather on mobile